Time;durP1;ratioP1;P1;durP2;ratioP2;P2;SDS_P1;SDS_P2;PMS_P1;PMS_P2;Temp;Humidity;BMP_temperature;BMP_pressure;BME280_temperature;BME280_humidity;BME280_pressure;Samples;Min_cycle;Max_cycle;Signal;HPM_P1;HPM_P2
2023/06/12 00:00:47;;;;;;;6.30;5.10;;;14.30;99.90;;;;;;5120076;28;20209;-79
2023/06/12 00:03:13;;;;;;;6.65;4.35;;;14.60;99.90;;;;;;5120014;28;20233;-77
2023/06/12 00:05:43;;;;;;;6.18;4.85;;;14.70;99.90;;;;;;5120133;28;20574;-80
2023/06/12 00:08:11;;;;;;;9.32;4.95;;;14.90;99.90;;;;;;5120073;28;20283;-76
2023/06/12 00:10:38;;;;;;;5.70;4.63;;;15.10;99.90;;;;;;5120091;28;20212;-78
2023/06/12 00:13:05;;;;;;;8.80;5.10;;;14.20;99.90;;;;;;5119512;28;20233;-79
2023/06/12 00:15:34;;;;;;;8.70;5.30;;;14.00;99.90;;;;;;5118621;28;20201;-78
2023/06/12 00:18:02;;;;;;;7.43;5.00;;;14.00;99.90;;;;;;5120126;28;20207;-77
2023/06/12 00:20:29;;;;;;;7.38;4.85;;;14.10;99.90;;;;;;5118962;28;20270;-78
2023/06/12 00:22:56;;;;;;;8.27;4.80;;;14.20;99.90;;;;;;5117813;28;20204;-78
2023/06/12 00:25:23;;;;;;;7.63;5.13;;;14.20;99.90;;;;;;5119728;28;20207;-77
2023/06/12 00:27:50;;;;;;;9.05;5.10;;;14.50;99.90;;;;;;5119270;28;20213;-78
2023/06/12 00:30:17;;;;;;;8.95;4.90;;;14.60;99.90;;;;;;5119127;28;20203;-77
2023/06/12 00:32:44;;;;;;;6.90;5.53;;;14.70;99.90;;;;;;5119246;28;20219;-79
2023/06/12 00:35:12;;;;;;;7.55;5.25;;;14.10;99.90;;;;;;5118656;28;20209;-77
2023/06/12 00:37:41;;;;;;;9.90;5.50;;;13.60;99.90;;;;;;5118928;28;20207;-77
2023/06/12 00:40:10;;;;;;;11.65;5.70;;;14.00;99.90;;;;;;5118641;28;20201;-80
2023/06/12 00:42:42;;;;;;;8.63;4.90;;;14.40;99.90;;;;;;5120224;28;20223;-78
2023/06/12 00:45:10;;;;;;;5.60;4.47;;;14.60;99.90;;;;;;5119598;28;20208;-77
2023/06/12 00:47:37;;;;;;;10.30;5.30;;;14.50;99.90;;;;;;5119291;28;20746;-79
2023/06/12 00:50:05;;;;;;;7.87;5.40;;;14.60;99.90;;;;;;5119680;28;20201;-76
2023/06/12 00:52:34;;;;;;;6.47;4.10;;;14.60;99.90;;;;;;5119548;28;20218;-78
2023/06/12 00:55:02;;;;;;;6.90;4.57;;;14.90;99.90;;;;;;5119153;28;20225;-76
2023/06/12 00:57:29;;;;;;;6.25;4.68;;;14.80;99.90;;;;;;5118946;28;20232;-78
2023/06/12 00:59:56;;;;;;;6.07;4.53;;;14.90;99.90;;;;;;5119329;28;20201;-77
2023/06/12 01:02:26;;;;;;;13.30;4.80;;;14.60;99.90;;;;;;5119741;28;20208;-79
2023/06/12 01:04:53;;;;;;;6.77;4.70;;;14.50;99.90;;;;;;5117883;28;20228;-79
2023/06/12 01:07:29;;;;;;;10.10;5.00;;;13.90;99.90;;;;;;5118714;28;20219;-79
2023/06/12 01:10:03;;;;;;;6.65;4.65;;;13.60;99.90;;;;;;5119494;28;20481;-78
2023/06/12 01:12:31;;;;;;;7.47;4.80;;;13.60;99.90;;;;;;5118690;28;20211;-77
2023/06/12 01:14:57;;;;;;;8.13;5.03;;;13.90;99.90;;;;;;5121964;28;20715;-79
2023/06/12 01:17:27;;;;;;;5.57;4.72;;;14.20;99.90;;;;;;5122496;28;20286;-76
2023/06/12 01:19:56;;;;;;;7.75;5.03;;;14.10;99.90;;;;;;5123216;28;20215;-78
2023/06/12 01:22:25;;;;;;;9.83;5.40;;;13.90;99.90;;;;;;5120744;28;20205;-78
2023/06/12 01:25:24;;;;;;;7.97;5.22;;;14.00;99.90;;;;;;5122943;28;20587;-78
2023/06/12 01:28:01;;;;;;;8.03;4.90;;;14.00;99.90;;;;;;5122936;28;20212;-78
2023/06/12 01:30:43;;;;;;;8.35;5.18;;;13.90;99.90;;;;;;5122552;28;20573;-79
2023/06/12 01:33:17;;;;;;;7.63;5.13;;;14.10;99.90;;;;;;5122255;28;20733;-80
2023/06/12 01:35:47;;;;;;;6.47;4.80;;;14.40;99.90;;;;;;5122052;28;20262;-77
2023/06/12 01:38:18;;;;;;;6.27;4.80;;;14.20;99.90;;;;;;5122134;28;20207;-78
2023/06/12 01:40:47;;;;;;;9.73;4.97;;;14.20;99.90;;;;;;5122535;28;20232;-80
2023/06/12 01:43:14;;;;;;;9.03;5.30;;;14.00;99.90;;;;;;5121855;28;20213;-78
2023/06/12 01:45:42;;;;;;;10.98;5.38;;;14.20;99.90;;;;;;5121639;28;20197;-78
2023/06/12 01:48:08;;;;;;;9.67;5.03;;;13.50;99.90;;;;;;5122467;28;20288;-78
2023/06/12 01:50:37;;;;;;;10.13;5.47;;;13.20;99.90;;;;;;5121935;28;20208;-78
2023/06/12 01:53:03;;;;;;;6.90;4.73;;;13.30;99.90;;;;;;5113545;28;20224;-78
2023/06/12 01:55:30;;;;;;;7.60;5.00;;;13.70;99.90;;;;;;5121808;28;20283;-77
2023/06/12 01:57:57;;;;;;;6.50;4.83;;;13.70;99.90;;;;;;5121728;28;20653;-82
2023/06/12 02:00:24;;;;;;;7.83;5.07;;;13.90;99.90;;;;;;5122129;28;20196;-79
2023/06/12 02:02:54;;;;;;;10.17;4.53;;;14.00;99.90;;;;;;5121972;28;20201;-78
2023/06/12 02:05:21;;;;;;;7.07;4.73;;;13.70;99.90;;;;;;5121333;28;20201;-77
2023/06/12 02:07:49;;;;;;;8.33;5.00;;;13.50;99.90;;;;;;5121865;28;20523;-78
2023/06/12 02:10:16;;;;;;;7.00;4.60;;;13.80;99.90;;;;;;5122384;28;20269;-78
2023/06/12 02:12:44;;;;;;;10.27;4.97;;;13.80;99.90;;;;;;5121864;28;20572;-80
2023/06/12 02:15:12;;;;;;;9.50;5.10;;;13.60;99.90;;;;;;5121230;28;20220;-78
2023/06/12 02:17:39;;;;;;;8.20;4.87;;;13.20;99.90;;;;;;5120829;28;20228;-78
2023/06/12 02:20:07;;;;;;;9.83;5.57;;;13.10;99.90;;;;;;5120371;28;20292;-78
2023/06/12 02:22:34;;;;;;;8.15;5.28;;;13.20;99.90;;;;;;5121876;28;20201;-77
2023/06/12 02:25:03;;;;;;;11.90;5.50;;;12.70;99.90;;;;;;5119550;28;20219;-80
2023/06/12 02:27:29;;;;;;;8.10;5.10;;;12.90;99.90;;;;;;5120152;28;20276;-77
2023/06/12 02:29:56;;;;;;;7.73;5.33;;;13.10;99.90;;;;;;5122528;28;20215;-78
2023/06/12 02:32:23;;;;;;;8.40;5.73;;;13.30;99.90;;;;;;5120942;28;20205;-79
2023/06/12 02:34:50;;;;;;;8.20;5.50;;;13.30;99.90;;;;;;5119824;28;20236;-78
2023/06/12 02:37:17;;;;;;;10.00;5.17;;;13.40;99.90;;;;;;5120540;28;20273;-78
2023/06/12 02:39:44;;;;;;;8.57;5.70;;;13.10;99.90;;;;;;5121295;28;20677;-76
2023/06/12 02:42:12;;;;;;;6.93;5.00;;;12.80;99.90;;;;;;5121080;28;20197;-79
2023/06/12 02:44:39;;;;;;;9.90;5.40;;;12.60;99.90;;;;;;5119112;28;20224;-77
2023/06/12 02:47:06;;;;;;;13.47;5.63;;;12.10;99.90;;;;;;5117317;28;20200;-79
2023/06/12 02:49:37;;;;;;;9.30;5.03;;;12.00;99.90;;;;;;5116861;28;20205;-79
2023/06/12 02:52:06;;;;;;;10.10;5.63;;;12.20;99.90;;;;;;5119190;28;20209;-80
2023/06/12 02:54:33;;;;;;;8.77;5.50;;;12.60;99.90;;;;;;5116969;28;20263;-78
2023/06/12 02:57:00;;;;;;;9.50;6.10;;;12.70;99.90;;;;;;5120281;28;20216;-79
2023/06/12 02:59:28;;;;;;;9.30;5.40;;;12.40;99.90;;;;;;5120908;28;20213;-78
2023/06/12 03:01:55;;;;;;;7.60;5.43;;;12.40;99.90;;;;;;5119652;28;20205;-79
2023/06/12 03:04:22;;;;;;;9.00;5.60;;;12.20;99.90;;;;;;5121749;28;20284;-80
2023/06/12 03:06:52;;;;;;;10.23;5.40;;;12.40;99.90;;;;;;5121151;28;20209;-79
2023/06/12 03:09:19;;;;;;;7.67;5.30;;;12.50;99.90;;;;;;5119354;28;20204;-80
2023/06/12 03:11:47;;;;;;;9.30;5.90;;;12.60;99.90;;;;;;5119807;28;20223;-79
2023/06/12 03:14:13;;;;;;;9.03;5.60;;;12.80;99.90;;;;;;5117604;28;20642;-78
2023/06/12 03:16:41;;;;;;;8.00;5.57;;;12.80;99.90;;;;;;5120125;28;20576;-78
2023/06/12 03:19:08;;;;;;;10.33;5.60;;;12.80;99.90;;;;;;5120816;28;20208;-78
2023/06/12 03:21:36;;;;;;;7.00;5.13;;;12.90;99.90;;;;;;5122757;28;20200;-79
2023/06/12 03:24:05;;;;;;;9.30;5.90;;;12.60;99.90;;;;;;5120845;28;20228;-78
2023/06/12 03:26:33;;;;;;;7.17;5.40;;;12.50;99.90;;;;;;5121144;28;20201;-78
2023/06/12 03:29:01;;;;;;;6.47;5.40;;;12.60;99.90;;;;;;5120847;28;20687;-78
2023/06/12 03:31:28;;;;;;;9.03;5.90;;;13.10;99.90;;;;;;5117060;28;20205;-78
2023/06/12 03:33:57;;;;;;;8.20;5.20;;;13.10;99.90;;;;;;5117698;28;20304;-79
2023/06/12 03:36:25;;;;;;;11.37;5.40;;;13.00;99.90;;;;;;5117540;28;20209;-78
2023/06/12 03:38:52;;;;;;;8.27;5.27;;;13.00;99.90;;;;;;5117698;28;20211;-81
2023/06/12 03:41:21;;;;;;;9.47;5.33;;;13.10;99.90;;;;;;5117718;28;20687;-78
2023/06/12 03:43:48;;;;;;;8.23;5.40;;;12.90;99.90;;;;;;5117698;28;20693;-80
2023/06/12 03:46:15;;;;;;;10.30;5.13;;;12.70;99.90;;;;;;5117071;28;20243;-77
2023/06/12 03:48:42;;;;;;;13.13;5.53;;;12.60;99.90;;;;;;5118155;28;20216;-79
2023/06/12 03:51:10;;;;;;;6.77;5.43;;;12.40;99.90;;;;;;5117961;28;20648;-79
2023/06/12 03:53:39;;;;;;;9.60;5.60;;;12.50;99.90;;;;;;5117001;28;20316;-77
2023/06/12 03:56:06;;;;;;;15.53;5.83;;;12.50;99.90;;;;;;5117374;28;20212;-79
2023/06/12 03:58:32;;;;;;;12.20;5.50;;;12.30;99.90;;;;;;5115040;28;20205;-80
2023/06/12 04:00:59;;;;;;;7.63;5.30;;;11.90;99.90;;;;;;5112524;28;20223;-81
2023/06/12 04:03:26;;;;;;;11.07;5.93;;;12.20;99.90;;;;;;5106067;28;20275;-79
2023/06/12 04:05:53;;;;;;;9.93;5.70;;;12.50;99.90;;;;;;5111284;28;20560;-79
2023/06/12 04:08:22;;;;;;;7.90;5.30;;;12.60;99.90;;;;;;5107614;28;20633;-80
2023/06/12 04:10:50;;;;;;;7.60;5.63;;;13.00;99.90;;;;;;5107617;28;20216;-80
2023/06/12 04:13:17;;;;;;;13.13;5.47;;;13.00;99.90;;;;;;5110281;28;20311;-79
2023/06/12 04:15:44;;;;;;;9.10;5.80;;;12.30;99.90;;;;;;5109796;28;20243;-79
2023/06/12 04:18:10;;;;;;;10.47;5.53;;;12.30;99.90;;;;;;5111542;28;20193;-80
2023/06/12 04:20:38;;;;;;;11.40;5.63;;;12.50;99.90;;;;;;5105410;28;20200;-79
2023/06/12 04:23:11;;;;;;;9.83;5.73;;;12.90;99.90;;;;;;5104658;28;20304;-81
2023/06/12 04:25:43;;;;;;;8.77;5.80;;;12.80;99.90;;;;;;5111368;28;20602;-81
2023/06/12 04:28:13;;;;;;;9.23;5.70;;;12.60;99.90;;;;;;5103129;28;20280;-82
2023/06/12 04:30:40;;;;;;;8.30;5.37;;;12.60;99.90;;;;;;5108906;28;20648;-82
2023/06/12 04:33:07;;;;;;;7.97;5.87;;;12.90;99.90;;;;;;5110460;28;20226;-80
2023/06/12 04:35:34;;;;;;;8.97;6.03;;;13.30;99.90;;;;;;5109107;28;20273;-81
2023/06/12 04:38:01;;;;;;;9.97;6.30;;;13.60;99.90;;;;;;5110075;28;20197;-81
2023/06/12 04:40:28;;;;;;;12.67;6.17;;;14.00;99.90;;;;;;5111121;28;20683;-80
2023/06/12 04:42:57;;;;;;;9.57;6.03;;;13.50;99.90;;;;;;5112206;28;20283;-81
2023/06/12 04:45:24;;;;;;;12.87;6.30;;;13.50;99.90;;;;;;5110924;28;20708;-81
2023/06/12 04:47:51;;;;;;;11.57;5.67;;;13.60;99.90;;;;;;5105979;28;20201;-83
2023/06/12 04:50:19;;;;;;;10.40;5.90;;;13.90;99.90;;;;;;5115500;28;20649;-80
2023/06/12 04:52:47;;;;;;;8.60;5.63;;;14.00;99.90;;;;;;5112476;28;20205;-80
2023/06/12 04:55:20;;;;;;;10.47;6.20;;;14.40;99.90;;;;;;5106335;28;20224;-79
2023/06/12 04:57:47;;;;;;;10.88;5.63;;;14.70;99.90;;;;;;5114305;28;20200;-79
2023/06/12 05:00:16;;;;;;;9.00;6.90;;;14.80;99.90;;;;;;5112603;28;20284;-81
2023/06/12 05:02:43;;;;;;;10.93;6.63;;;15.00;99.90;;;;;;5109076;28;20202;-80
2023/06/12 05:05:10;;;;;;;10.90;6.45;;;15.30;99.90;;;;;;5116121;28;20638;-84
2023/06/12 05:07:37;;;;;;;9.55;6.22;;;15.70;99.90;;;;;;5113150;28;20205;-82
2023/06/12 05:10:05;;;;;;;9.60;6.80;;;15.80;99.90;;;;;;5115212;28;20201;-83
2023/06/12 05:12:32;;;;;;;12.00;6.78;;;15.90;99.90;;;;;;5111252;28;20246;-82
2023/06/12 05:14:59;;;;;;;11.13;6.90;;;16.20;99.90;;;;;;5115236;28;20235;-81
2023/06/12 05:17:28;;;;;;;12.57;7.68;;;16.30;99.90;;;;;;5115768;28;20200;-84
2023/06/12 05:19:55;;;;;;;10.32;6.65;;;16.60;99.90;;;;;;5117677;28;20268;-82
2023/06/12 05:22:22;;;;;;;9.77;7.25;;;16.60;99.90;;;;;;5118250;28;20215;-81
2023/06/12 05:24:48;;;;;;;10.65;7.80;;;16.70;99.90;;;;;;5117389;28;20221;-82
2023/06/12 05:27:15;;;;;;;12.07;7.60;;;16.70;99.90;;;;;;5118077;28;20215;-80
2023/06/12 05:29:42;;;;;;;16.95;7.68;;;16.60;99.90;;;;;;5118467;28;20269;-82
2023/06/12 05:32:09;;;;;;;20.98;8.55;;;16.70;99.90;;;;;;5117659;28;20235;-83
2023/06/12 05:34:37;;;;;;;12.95;7.65;;;16.70;99.90;;;;;;5115833;28;20677;-84
2023/06/12 05:37:04;;;;;;;15.88;8.43;;;17.00;99.90;;;;;;5117284;28;20205;-81
2023/06/12 05:39:31;;;;;;;11.20;8.02;;;17.90;99.90;;;;;;5118085;28;20201;-81
2023/06/12 05:41:58;;;;;;;13.90;7.68;;;18.40;99.90;;;;;;5117566;28;20203;-83
2023/06/12 05:44:25;;;;;;;10.32;7.55;;;18.20;99.90;;;;;;5113127;28;20565;-80
2023/06/12 05:46:52;;;;;;;11.60;7.78;;;17.80;99.90;;;;;;5117686;28;20219;-82
2023/06/12 05:49:19;;;;;;;10.00;8.05;;;17.60;99.90;;;;;;5118889;28;20665;-82
2023/06/12 05:51:47;;;;;;;13.77;8.65;;;17.30;99.90;;;;;;5118010;28;20308;-82
2023/06/12 05:54:14;;;;;;;12.13;8.73;;;17.10;99.90;;;;;;5117867;28;20209;-82
2023/06/12 05:56:40;;;;;;;15.52;9.00;;;17.20;99.90;;;;;;5117734;28;20197;-80
2023/06/12 05:59:07;;;;;;;15.18;9.13;;;17.40;99.90;;;;;;5117941;28;20200;-80
2023/06/12 06:01:35;;;;;;;12.10;8.88;;;17.50;99.90;;;;;;5117970;28;20205;-81
2023/06/12 06:04:02;;;;;;;12.52;8.70;;;17.60;99.90;;;;;;5118110;28;20251;-83
2023/06/12 06:06:30;;;;;;;12.32;9.50;;;17.90;99.90;;;;;;5117519;28;20197;-84
2023/06/12 06:08:59;;;;;;;15.57;10.18;;;18.20;99.90;;;;;;5117428;28;20217;-83
2023/06/12 06:11:28;;;;;;;12.85;9.55;;;18.20;99.90;;;;;;5117780;28;20204;-82
2023/06/12 06:13:55;;;;;;;13.65;9.55;;;18.50;99.90;;;;;;5117913;28;20220;-84
2023/06/12 06:16:21;;;;;;;12.93;9.55;;;18.70;99.90;;;;;;5116594;28;20675;-81
2023/06/12 06:18:48;;;;;;;11.48;8.77;;;19.20;99.90;;;;;;5117046;28;20649;-81
2023/06/12 06:21:15;;;;;;;11.43;8.80;;;19.30;99.90;;;;;;5117386;28;20574;-81
2023/06/12 06:23:42;;;;;;;12.75;9.63;;;19.40;99.90;;;;;;5116697;28;20646;-83
2023/06/12 06:26:10;;;;;;;15.07;9.70;;;19.60;99.90;;;;;;5116828;28;20600;-83
2023/06/12 06:28:38;;;;;;;14.80;9.70;;;19.60;99.90;;;;;;5116392;28;20634;-81
2023/06/12 06:31:07;;;;;;;12.52;9.82;;;19.70;99.90;;;;;;5114680;28;20232;-81
2023/06/12 06:33:34;;;;;;;13.73;9.73;;;19.80;99.90;;;;;;5116004;28;20232;-81
2023/06/12 06:36:01;;;;;;;12.27;9.77;;;19.80;99.90;;;;;;5114768;28;20228;-82
2023/06/12 06:38:28;;;;;;;10.90;8.95;;;19.90;99.90;;;;;;5115337;28;20208;-82
2023/06/12 06:40:55;;;;;;;12.00;9.95;;;19.90;99.90;;;;;;5116406;28;20650;-81
2023/06/12 06:43:23;;;;;;;14.13;9.35;;;20.10;99.90;;;;;;5117284;28;20239;-82
2023/06/12 06:45:50;;;;;;;13.65;9.80;;;20.00;99.90;;;;;;5116947;28;20211;-83
2023/06/12 06:48:17;;;;;;;13.85;9.25;;;19.90;99.90;;;;;;5117406;28;20205;-81
2023/06/12 06:50:44;;;;;;;13.13;9.77;;;20.00;99.90;;;;;;5117481;28;20205;-80
2023/06/12 06:53:11;;;;;;;16.10;10.48;;;20.20;99.90;;;;;;5117932;28;20708;-80
2023/06/12 06:55:38;;;;;;;13.60;9.75;;;20.30;99.90;;;;;;5116582;28;20302;-83
2023/06/12 06:58:05;;;;;;;15.35;10.70;;;20.30;99.90;;;;;;5108585;28;20603;-83
2023/06/12 07:00:33;;;;;;;12.85;9.88;;;20.40;99.90;;;;;;5116242;28;20291;-81
2023/06/12 07:03:00;;;;;;;13.95;9.80;;;20.50;99.90;;;;;;5116790;28;20204;-81
2023/06/12 07:05:28;;;;;;;11.75;9.02;;;20.50;99.90;;;;;;5115710;28;20204;-80
2023/06/12 07:07:55;;;;;;;13.15;9.73;;;20.30;99.90;;;;;;5115261;28;20551;-81
2023/06/12 07:10:22;;;;;;;12.57;9.80;;;20.10;99.90;;;;;;5116972;28;20205;-80
2023/06/12 07:12:56;;;;;;;12.88;9.80;;;20.10;99.90;;;;;;5115942;28;20286;-80
2023/06/12 07:15:23;;;;;;;13.30;10.07;;;20.40;99.90;;;;;;5116736;28;20623;-80
2023/06/12 07:17:51;;;;;;;10.85;9.13;;;20.50;99.90;;;;;;5117100;28;20205;-82
2023/06/12 07:20:18;;;;;;;13.43;9.55;;;20.80;99.90;;;;;;5117548;28;20211;-83
2023/06/12 07:22:45;;;;;;;11.77;9.13;;;20.80;99.90;;;;;;5116585;28;20205;-81
2023/06/12 07:25:12;;;;;;;12.68;8.80;;;21.00;99.90;;;;;;5116241;28;20197;-80
2023/06/12 07:27:38;;;;;;;11.10;8.50;;;21.10;99.90;;;;;;5116658;28;20208;-80
2023/06/12 07:30:06;;;;;;;12.23;9.23;;;21.20;99.90;;;;;;5116282;28;20207;-81
2023/06/12 07:32:33;;;;;;;11.73;8.82;;;21.20;99.90;;;;;;5116763;28;20568;-82
2023/06/12 07:35:01;;;;;;;13.52;8.75;;;21.20;99.90;;;;;;5113804;28;20221;-81
2023/06/12 07:37:30;;;;;;;11.40;8.50;;;21.30;99.90;;;;;;5116641;28;20630;-83
2023/06/12 07:39:56;;;;;;;12.50;9.00;;;21.40;99.90;;;;;;5117319;28;20648;-80
2023/06/12 07:42:23;;;;;;;10.27;8.27;;;21.50;99.90;;;;;;5120653;28;20201;-82
2023/06/12 07:44:50;;;;;;;13.63;8.70;;;21.50;99.90;;;;;;5122315;27;20212;-83
2023/06/12 07:47:17;;;;;;;10.15;8.43;;;21.60;99.90;;;;;;5127062;27;20193;-82
2023/06/12 07:49:43;;;;;;;11.45;9.23;;;21.50;99.90;;;;;;5126671;27;20192;-83
2023/06/12 07:52:11;;;;;;;10.15;9.00;;;21.60;99.90;;;;;;5118149;27;20207;-79
2023/06/12 07:54:38;;;;;;;12.32;9.48;;;21.70;99.90;;;;;;5115392;28;20284;-80
2023/06/12 07:57:06;;;;;;;10.13;7.88;;;21.70;99.90;;;;;;5115441;28;20220;-80
2023/06/12 07:59:33;;;;;;;10.73;8.02;;;22.10;99.90;;;;;;5115729;28;20222;-83
2023/06/12 08:02:01;;;;;;;11.27;7.78;;;22.30;99.90;;;;;;5115437;28;20201;-80
2023/06/12 08:04:29;;;;;;;11.75;8.85;;;22.30;99.90;;;;;;5115111;28;20586;-80
2023/06/12 08:06:56;;;;;;;12.02;8.65;;;22.50;99.90;;;;;;5115406;28;20189;-81
2023/06/12 08:09:24;;;;;;;9.35;8.10;;;22.70;99.90;;;;;;5116292;28;20673;-80
2023/06/12 08:11:52;;;;;;;10.18;7.72;;;22.90;99.90;;;;;;5116137;28;20197;-80
2023/06/12 08:14:19;;;;;;;10.65;7.32;;;22.90;93.60;;;;;;5115601;28;20228;-82
2023/06/12 08:16:46;;;;;;;9.13;7.70;;;22.90;1.00;;;;;;5114685;28;20221;-82
2023/06/12 08:19:13;;;;;;;8.43;7.35;;;23.00;99.90;;;;;;5115267;28;20562;-80
2023/06/12 08:21:40;;;;;;;8.00;7.18;;;23.30;1.00;;;;;;5116348;28;20192;-80
2023/06/12 08:24:09;;;;;;;8.80;7.00;;;23.30;1.00;;;;;;5103726;28;20568;-81
2023/06/12 08:26:37;;;;;;;9.57;7.03;;;23.40;1.00;;;;;;5114841;28;20205;-79
2023/06/12 08:29:04;;;;;;;9.25;7.28;;;23.40;94.20;;;;;;5125699;27;20268;-82
2023/06/12 08:31:33;;;;;;;7.97;6.30;;;23.50;99.90;;;;;;5115619;28;20196;-83
2023/06/12 08:33:59;;;;;;;11.60;6.97;;;23.50;99.90;;;;;;5115454;28;20242;-83
2023/06/12 08:36:26;;;;;;;9.20;7.07;;;23.50;99.90;;;;;;5104133;28;20229;-85
2023/06/12 08:38:53;;;;;;;7.57;6.80;;;23.50;1.00;;;;;;5103380;28;20281;-83
2023/06/12 08:41:22;;;;;;;8.40;6.55;;;23.50;99.90;;;;;;5102433;28;20654;-81
2023/06/12 08:43:52;;;;;;;7.68;6.07;;;23.50;1.00;;;;;;5104509;28;20213;-83
2023/06/12 08:46:19;;;;;;;9.13;6.57;;;23.50;1.00;;;;;;5115885;28;20201;-83
2023/06/12 08:48:48;;;;;;;8.45;6.72;;;23.50;1.00;;;;;;5115407;28;20205;-82
2023/06/12 08:51:16;;;;;;;8.27;7.15;;;23.80;1.00;;;;;;5115379;28;20204;-84
2023/06/12 08:53:43;;;;;;;7.70;6.90;;;23.80;1.00;;;;;;5115378;28;20744;-80
2023/06/12 08:56:11;;;;;;;8.52;6.72;;;24.10;99.90;;;;;;5115165;28;20223;-81
2023/06/12 08:58:38;;;;;;;9.50;6.70;;;24.20;99.90;;;;;;5115137;28;20205;-83
2023/06/12 09:01:09;;;;;;;8.35;6.00;;;24.40;1.00;;;;;;5115415;28;20205;-80
2023/06/12 09:03:38;;;;;;;9.10;6.47;;;24.60;1.00;;;;;;5116103;28;20221;-83
2023/06/12 09:06:09;;;;;;;10.95;5.95;;;24.60;1.00;;;;;;5108796;28;20288;-81
2023/06/12 09:08:38;;;;;;;7.57;5.90;;;24.50;1.00;;;;;;5115444;28;20216;-84
2023/06/12 09:11:05;;;;;;;7.70;6.00;;;25.00;99.90;;;;;;5113415;28;20193;-83
2023/06/12 09:13:41;;;;;;;7.18;5.38;;;25.20;99.90;;;;;;5113612;28;20229;-84
2023/06/12 09:16:13;;;;;;;8.60;6.40;;;25.10;89.10;;;;;;5104457;28;20216;-80
2023/06/12 09:18:50;;;;;;;10.60;6.72;;;25.30;99.90;;;;;;5115210;28;20207;-84
2023/06/12 09:21:17;;;;;;;8.18;5.93;;;25.30;99.90;;;;;;5114139;28;20211;-82
2023/06/12 09:23:45;;;;;;;11.48;6.00;;;25.70;24.60;;;;;;5114662;28;20254;-80
2023/06/12 09:26:15;;;;;;;6.13;5.43;;;25.40;1.00;;;;;;5114182;28;20209;-82
2023/06/12 09:28:43;;;;;;;10.38;6.50;;;25.30;1.00;;;;;;5115087;28;20552;-82
2023/06/12 09:31:12;;;;;;;10.93;5.85;;;25.30;1.00;;;;;;5114566;28;20201;-83
2023/06/12 09:33:40;;;;;;;7.18;5.88;;;25.50;99.90;;;;;;5115556;28;20231;-82
2023/06/12 09:36:07;;;;;;;11.43;5.38;;;25.50;99.90;;;;;;5117370;28;20224;-82
2023/06/12 09:38:35;;;;;;;7.32;5.57;;;25.60;99.90;;;;;;5118725;28;20219;-82
2023/06/12 09:41:04;;;;;;;7.90;5.32;;;26.10;99.90;;;;;;5118585;28;20228;-82
2023/06/12 09:43:32;;;;;;;6.50;5.53;;;26.00;1.00;;;;;;5118519;28;20231;-80
2023/06/12 09:46:01;;;;;;;8.63;4.70;;;25.80;1.00;;;;;;5117926;28;20197;-79
2023/06/12 09:48:35;;;;;;;6.43;5.13;;;25.70;1.00;;;;;;5118111;28;20227;-78
2023/06/12 09:51:05;;;;;;;6.15;4.55;;;25.90;1.00;;;;;;5117784;28;20201;-81
2023/06/12 09:53:36;;;;;;;6.47;4.50;;;25.50;1.00;;;;;;5117877;28;20233;-82
2023/06/12 09:56:07;;;;;;;7.07;4.63;;;25.40;99.90;;;;;;5117689;28;20259;-81
2023/06/12 09:58:37;;;;;;;5.57;4.50;;;26.00;99.90;;;;;;5118035;28;20201;-83
2023/06/12 10:01:05;;;;;;;5.72;4.70;;;26.30;99.90;;;;;;5117613;28;20208;-80
2023/06/12 10:03:37;;;;;;;4.47;4.07;;;26.50;41.10;;;;;;5117399;28;20225;-81
2023/06/12 10:06:06;;;;;;;4.93;4.03;;;26.20;1.00;;;;;;5117805;28;20211;-82
2023/06/12 10:08:34;;;;;;;5.32;4.22;;;26.20;1.00;;;;;;5118015;28;20207;-83
2023/06/12 10:11:02;;;;;;;6.15;4.00;;;26.50;1.00;;;;;;5118319;28;20711;-80
2023/06/12 10:13:30;;;;;;;5.38;4.13;;;26.90;1.00;;;;;;5117884;28;20229;-80
2023/06/12 10:15:57;;;;;;;4.40;3.90;;;27.20;1.00;;;;;;5118554;28;20624;-83
2023/06/12 10:18:25;;;;;;;4.93;3.97;;;26.90;99.90;;;;;;5118379;28;20582;-79
2023/06/12 10:20:54;;;;;;;5.07;4.13;;;27.20;99.90;;;;;;5117166;28;20201;-79
2023/06/12 10:23:21;;;;;;;5.70;4.15;;;27.20;99.90;;;;;;5115250;28;20231;-80
2023/06/12 10:25:48;;;;;;;6.55;4.03;;;27.50;91.50;;;;;;5116252;28;20201;-79
2023/06/12 10:28:16;;;;;;;7.90;3.70;;;27.50;1.00;;;;;;5117112;28;20193;-81
2023/06/12 10:31:13;;;;;;;4.55;4.10;;;27.30;1.00;;;;;;5117442;28;20201;-80
2023/06/12 10:33:58;;;;;;;4.03;3.63;;;26.70;1.00;;;;;;5116879;28;20700;-78
2023/06/12 10:36:26;;;;;;;4.85;4.03;;;26.40;1.00;;;;;;5114700;28;20223;-79
2023/06/12 10:39:03;;;;;;;4.75;3.70;;;26.30;1.00;;;;;;5116767;28;20193;-78
2023/06/12 10:41:31;;;;;;;4.85;3.35;;;26.10;1.00;;;;;;5117106;28;20291;-80
2023/06/12 10:43:58;;;;;;;6.38;3.83;;;26.50;1.00;;;;;;5116874;28;20685;-80
2023/06/12 10:46:42;;;;;;;4.40;3.58;;;26.90;99.90;;;;;;5115354;28;20203;-80
2023/06/12 10:49:08;;;;;;;5.63;3.65;;;26.60;99.90;;;;;;5116935;28;20201;-80
2023/06/12 10:51:40;;;;;;;5.65;3.80;;;26.40;99.90;;;;;;5115507;28;20205;-80
2023/06/12 10:54:15;;;;;;;3.83;3.53;;;26.00;99.90;;;;;;5115900;28;20225;-80
2023/06/12 10:56:56;;;;;;;4.50;3.65;;;26.40;99.90;;;;;;5115689;28;20223;-79
2023/06/12 10:59:30;;;;;;;6.43;3.67;;;26.50;99.90;;;;;;5115314;28;20204;-79
2023/06/12 11:01:57;;;;;;;7.60;4.05;;;25.90;91.30;;;;;;5116121;28;20201;-80
2023/06/12 11:04:24;;;;;;;5.90;3.72;;;26.40;73.90;;;;;;5116419;28;20224;-80
2023/06/12 11:06:52;;;;;;;4.93;3.65;;;26.70;16.40;;;;;;5114478;28;20201;-79
2023/06/12 11:09:19;;;;;;;8.32;3.90;;;26.50;1.00;;;;;;5115453;28;20196;-80
2023/06/12 11:11:49;;;;;;;5.30;3.83;;;27.00;1.00;;;;;;5116070;28;20208;-80
2023/06/12 11:14:15;;;;;;;6.13;3.80;;;27.40;1.00;;;;;;5115197;28;20217;-80
2023/06/12 11:16:45;;;;;;;5.20;3.60;;;27.60;1.00;;;;;;5115049;28;20235;-79
2023/06/12 11:19:12;;;;;;;5.80;3.70;;;27.20;1.00;;;;;;5115595;28;20209;-79
2023/06/12 11:21:40;;;;;;;4.10;3.63;;;26.90;1.00;;;;;;5115760;28;20890;-79
2023/06/12 11:24:10;;;;;;;4.18;3.50;;;26.50;1.00;;;;;;5115677;28;20274;-79
2023/06/12 11:26:37;;;;;;;5.30;3.90;;;26.70;1.00;;;;;;5114667;28;20221;-80
2023/06/12 11:29:14;;;;;;;4.97;3.83;;;26.50;1.00;;;;;;5106732;28;20221;-80
2023/06/12 11:31:41;;;;;;;4.78;3.63;;;27.20;1.00;;;;;;5107049;28;20284;-79
2023/06/12 11:34:08;;;;;;;3.92;3.53;;;27.40;1.00;;;;;;5112707;28;20636;-79
2023/06/12 11:36:35;;;;;;;4.40;3.95;;;26.90;1.00;;;;;;5109898;28;20221;-78
2023/06/12 11:39:16;;;;;;;4.13;3.72;;;26.30;1.00;;;;;;5113368;28;20220;-79
2023/06/12 11:41:44;;;;;;;4.57;3.80;;;26.70;1.00;;;;;;5109806;28;20553;-79
2023/06/12 11:44:11;;;;;;;5.13;3.42;;;27.40;1.00;;;;;;5114523;28;20284;-79
2023/06/12 11:46:37;;;;;;;4.32;3.70;;;27.50;1.00;;;;;;5114549;28;20573;-79
2023/06/12 11:49:05;;;;;;;6.38;3.88;;;27.00;1.00;;;;;;5106045;28;20660;-80
2023/06/12 11:51:32;;;;;;;4.93;3.70;;;27.00;1.00;;;;;;5115078;28;20262;-79
2023/06/12 11:54:00;;;;;;;3.40;3.10;;;27.20;1.00;;;;;;5115210;28;20227;-79
2023/06/12 11:56:28;;;;;;;5.60;3.83;;;27.10;1.00;;;;;;5114985;28;20224;-80
2023/06/12 11:58:57;;;;;;;6.20;3.70;;;27.10;1.00;;;;;;5114652;28;20204;-81
2023/06/12 12:01:23;;;;;;;3.90;3.60;;;26.90;1.00;;;;;;5115502;28;20288;-79
2023/06/12 12:03:51;;;;;;;9.02;3.88;;;27.00;1.00;;;;;;5115362;28;20221;-80
2023/06/12 12:06:18;;;;;;;6.60;3.72;;;26.90;1.00;;;;;;5114486;28;20201;-80
2023/06/12 12:08:47;;;;;;;10.75;4.20;;;26.50;1.00;;;;;;5115366;28;20207;-79
2023/06/12 12:11:21;;;;;;;5.35;3.47;;;26.70;1.00;;;;;;5115607;28;20201;-79
2023/06/12 12:13:50;;;;;;;4.10;3.30;;;27.10;1.00;;;;;;5115282;28;20224;-79
2023/06/12 12:16:29;;;;;;;7.13;3.53;;;27.40;1.00;;;;;;5114363;28;20676;-80
2023/06/12 12:18:56;;;;;;;4.15;3.70;;;26.90;1.00;;;;;;5114885;28;20196;-80
2023/06/12 12:21:24;;;;;;;6.35;4.00;;;27.00;1.00;;;;;;5115295;28;20640;-80
2023/06/12 12:23:53;;;;;;;3.53;3.22;;;27.00;1.00;;;;;;5115370;28;20221;-79
2023/06/12 12:26:20;;;;;;;5.28;3.50;;;27.00;1.00;;;;;;5115487;28;20711;-81
2023/06/12 12:28:47;;;;;;;4.18;3.42;;;27.70;1.00;;;;;;5115373;28;20228;-81
2023/06/12 12:31:13;;;;;;;4.97;3.20;;;27.30;1.00;;;;;;5114598;28;20197;-80
2023/06/12 12:33:42;;;;;;;7.28;3.55;;;26.60;1.00;;;;;;5114256;28;20223;-82
2023/06/12 12:36:09;;;;;;;3.72;3.35;;;26.80;1.00;;;;;;5113326;28;20193;-81
2023/06/12 12:38:36;;;;;;;3.38;3.08;;;27.00;1.00;;;;;;5113434;28;20223;-79
2023/06/12 12:41:02;;;;;;;3.92;3.50;;;27.00;1.00;;;;;;5113647;28;20211;-79
2023/06/12 12:43:29;;;;;;;18.27;4.47;;;27.00;1.00;;;;;;5111842;28;20213;-79
2023/06/12 12:45:56;;;;;;;4.30;3.15;;;26.90;1.00;;;;;;5111854;28;20557;-80
2023/06/12 12:48:23;;;;;;;3.20;2.90;;;26.70;1.00;;;;;;5112319;28;20223;-81
2023/06/12 12:50:51;;;;;;;4.47;3.58;;;26.60;1.00;;;;;;5111601;28;20204;-80